Latest Weather Observations for Dum In Mirrie

IDD60901

Issued at 11:51 pm CST Monday 29 August 2016 (issued every 10 minutes, with the page automatically refreshed every 10 minutes)

About weather observations | Map of Darwin area stations | Latest observations for Darwin area | Other Formats
Station Details ID: 014277 Name: DUM IN MIRRIE AIRSTRIP Lat: -12.63 Lon: 130.37 Height: 3.5 m
Data from the previous 72 hours. | See also: Recent months at Dum In Mirrie
Date/Time
CST
Temp
°C
App
Temp
°C
Dew
Point
°C
Rel
Hum
%
Delta-T
°C
Wind Press
QNH
hPa
Press
MSL
hPa
Rain since
9am
mm
Dir  Spd
km/h
Gust
km/h
Spd
kts
Gust
kts
29/11:30pm 26.4 30.3 22.9 81 2.4 W 7 15 4 8 1013.8 1013.8 0.0
29/11:00pm 26.4 30.1 22.5 79 2.6 W 7 17 4 9 1013.6 1013.6 0.0
29/10:30pm 26.3 29.8 22.2 78 2.8 W 7 11 4 6 1013.3 1013.3 0.0
29/10:00pm 26.1 29.9 22.4 80 2.5 W 6 11 3 6 1013.1 1013.1 0.0
29/09:30pm 26.3 30.4 23.0 82 2.2 W 6 11 3 6 1012.9 1012.9 0.0
29/09:00pm 25.8 28.8 21.2 76 3.0 NNE 7 9 4 5 1012.3 1012.3 0.0
29/08:30pm 26.1 28.8 20.7 72 3.5 NNE 7 11 4 6 1011.8 1011.8 0.0
29/08:00pm 26.6 28.5 19.7 66 4.5 NE 9 13 5 7 1011.4 1011.4 0.0
29/07:30pm 27.1 28.8 19.4 62 5.0 ENE 9 15 5 8 1011.3 1011.3 0.0
29/07:00pm 27.4 28.5 18.1 57 5.9 NE 9 17 5 9 1010.8 1010.8 0.0
29/06:30pm 28.1 28.7 17.6 53 6.6 NE 11 19 6 10 1010.4 1010.4 0.0
29/06:00pm 29.0 29.4 18.1 51 7.0 NNE 13 20 7 11 1010.3 1010.3 0.0
29/05:30pm 29.8 30.1 17.9 48 7.6 NNE 13 22 7 12 1010.2 1010.2 0.0
29/05:00pm 30.0 30.4 18.1 49 7.6 NNE 13 22 7 12 1010.2 1010.2 0.0
29/04:30pm 29.9 30.8 19.3 53 6.9 NNE 13 24 7 13 1009.9 1009.9 0.0
29/04:00pm 29.9 30.5 20.2 56 6.4 N 17 30 9 16 1009.9 1009.9 0.0
29/03:30pm 29.8 30.7 20.1 56 6.4 NNE 15 24 8 13 1010.0 1010.0 0.0
29/03:00pm 29.8 30.2 19.8 55 6.6 N 17 26 9 14 1010.5 1010.5 0.0
29/02:30pm 30.4 31.3 20.0 53 6.9 NNE 15 24 8 13 1011.1 1011.1 0.0
29/02:00pm 29.4 30.4 20.3 58 6.0 NNE 15 24 8 13 1011.7 1011.7 0.0
29/01:30pm 29.1 29.7 20.3 59 5.8 N 17 24 9 13 1012.2 1012.2 0.0
29/01:00pm 29.0 30.4 20.4 59 5.7 N 13 20 7 11 1012.8 1012.8 0.0
29/12:30pm 28.8 29.5 19.7 58 5.9 N 15 22 8 12 1013.2 1013.2 0.0
29/12:00pm 29.3 30.2 19.3 55 6.5 NNE 13 22 7 12 1013.5 1013.5 0.0
29/11:30am 29.0 29.5 18.4 52 6.8 NNE 13 20 7 11 1014.1 1014.1 0.0
29/11:00am 28.9 29.0 18.4 53 6.7 ENE 15 24 8 13 1014.6 1014.6 0.0
29/10:30am 28.5 29.4 20.0 60 5.6 NE 15 20 8 11 1014.9 1014.9 0.0
29/10:00am 27.5 29.8 21.3 69 4.1 NE 11 19 6 10 1014.9 1014.9 0.0
29/09:30am 27.3 29.7 21.6 71 3.8 E 11 17 6 9 1014.9 1014.9 0.0
29/09:00am 26.2 29.9 22.5 80 2.5 ESE 7 11 4 6 1014.6 1014.6 0.0
29/08:30am 24.7 28.4 22.2 86 1.7 E 6 9 3 5 1014.3 1014.3 0.0
29/08:00am 23.6 27.7 22.9 96 0.5 E 6 9 3 5 1014.0 1014.0 0.0
29/07:30am 22.5 26.2 22.2 98 0.2 ESE 6 7 3 4 1013.6 1013.6 0.0
29/07:00am 21.6 25.2 21.3 98 0.2 E 4 7 2 4 1013.2 1013.2 0.0
29/06:30am 20.4 23.2 19.7 96 0.4 E 4 6 2 3 1012.9 1012.9 0.0
29/06:00am 20.8 23.8 20.0 95 0.5 E 4 4 2 2 1012.6 1012.6 0.0
29/05:30am 21.2 24.4 20.5 96 0.5 E 4 6 2 3 1012.2 1012.2 0.0
29/05:00am 21.9 25.3 21.6 98 0.2 E 6 6 3 3 1012.0 1012.0 0.0
29/04:30am 21.4 24.7 20.7 96 0.5 E 4 6 2 3 1011.8 1011.8 0.0
29/04:00am 20.9 24.1 19.7 93 0.8 ESE 2 4 1 2 1011.8 1011.8 0.0
29/03:30am 21.1 24.6 19.6 91 1.0 CALM 0 0 0 0 1011.7 1011.7 0.0
29/03:00am 21.7 25.3 19.8 89 1.2 CALM 0 0 0 0 1011.9 1011.9 0.0
29/02:30am 23.0 26.6 20.5 86 1.6 WNW 2 4 1 2 1012.3 1012.3 0.0
29/02:00am 23.6 27.1 20.3 82 2.1 WNW 2 6 1 3 1012.5 1012.5 0.0
29/01:30am 25.6 28.9 20.8 75 3.2 WNW 4 6 2 3 1012.7 1012.7 0.0
29/01:00am 25.5 28.8 21.4 78 2.7 W 6 9 3 5 1012.8 1012.8 0.0
29/12:30am 25.8 29.1 21.5 77 2.9 WSW 6 11 3 6 1013.0 1013.0 0.0
29/12:00am 25.7 29.1 21.6 78 2.7 W 6 11 3 6 1013.0 1013.0 0.0
 
Date/Time
CST
Temp
°C
App
Temp
°C
Dew
Point
°C
Rel
Hum
%
Delta-T
°C
Wind Press
QNH
hPa
Press
MSL
hPa
Rain since
9am
mm
Dir  Spd
km/h
Gust
km/h
Spd
kts
Gust
kts
28/11:30pm 25.7 29.0 21.4 77 2.8 WNW 6 9 3 5 1012.9 1012.9 0.0
28/11:00pm 25.7 29.2 21.8 79 2.6 W 6 9 3 5 1013.0 1013.0 0.0
28/10:30pm 25.7 29.1 21.6 78 2.7 W 6 11 3 6 1012.8 1012.8 0.0
28/10:00pm 25.5 28.6 21.0 76 3.0 WNW 6 9 3 5 1012.6 1012.6 0.0
28/09:30pm 24.7 28.0 20.8 79 2.6 WNW 4 6 2 3 1012.6 1012.6 0.0
28/09:00pm 22.1 25.1 19.3 84 1.8 NNW 2 6 1 3 1012.5 1012.5 0.0
28/08:30pm 22.4 25.1 18.6 79 2.4 NNW 2 4 1 2 1012.0 1012.0 0.0
28/08:00pm 23.1 25.6 19.1 78 2.5 NE 4 4 2 2 1011.6 1011.6 0.0
28/07:30pm 24.2 26.7 19.1 73 3.3 NE 4 4 2 2 1011.1 1011.1 0.0
28/07:00pm 25.6 27.8 18.3 64 4.6 NE 4 6 2 3 1010.9 1010.9 0.0
28/06:30pm 26.9 28.9 17.9 57 5.7 NNE 4 7 2 4 1010.7 1010.7 0.0
28/06:00pm 28.2 29.9 18.6 56 6.2 NNE 7 17 4 9 1010.5 1010.5 0.0
28/05:30pm 28.7 29.6 18.5 54 6.5 NNE 11 20 6 11 1010.4 1010.4 0.0
28/05:00pm 28.6 29.0 19.0 56 6.2 NNE 15 22 8 12 1010.3 1010.3 0.0
28/04:30pm 29.0 29.8 19.0 54 6.5 N 13 24 7 13 1010.3 1010.3 0.0
28/04:00pm 29.3 29.5 19.3 55 6.5 NNE 17 24 9 13 1010.4 1010.4 0.0
28/03:30pm 28.9 28.5 18.9 54 6.5 N 19 28 10 15 1010.4 1010.4 0.0
28/03:00pm 28.6 28.5 19.5 58 5.9 N 19 28 10 15 1011.0 1011.0 0.0
28/02:30pm 28.8 29.0 20.5 61 5.5 N 20 32 11 17 1011.5 1011.5 0.0
28/02:00pm 29.1 29.7 21.1 62 5.3 N 19 30 10 16 1012.0 1012.0 0.0
28/01:30pm 29.3 31.1 21.8 64 5.0 N 15 26 8 14 1012.4 1012.4 0.0
28/01:00pm 29.5 31.0 22.0 64 5.1 N 17 26 9 14 1012.9 1012.9 0.0
28/12:30pm 28.9 29.7 20.6 61 5.5 NNE 17 26 9 14 1013.2 1013.2 0.0
28/12:00pm 28.7 30.4 21.0 63 5.1 NNE 13 22 7 12 1013.8 1013.8 0.0
28/11:30am 28.8 30.1 20.8 62 5.3 NE 15 24 8 13 1014.3 1014.3 0.0
28/11:00am 28.9 29.8 20.1 59 5.8 NE 15 20 8 11 1014.8 1014.8 0.0
28/10:30am 28.4 29.5 20.4 62 5.3 ENE 15 22 8 12 1015.2 1015.2 0.0
28/10:00am 28.0 29.9 21.3 67 4.5 NE 13 24 7 13 1015.4 1015.4 0.0
28/09:30am 27.4 29.1 21.7 71 3.8 NE 15 20 8 11 1015.2 1015.2 0.0
28/09:00am 26.7 28.9 21.9 75 3.2 NE 13 20 7 11 1015.3 1015.3 0.2
28/08:30am 25.8 28.8 21.9 79 2.6 NE 9 13 5 7 1015.2 1015.2 0.2
28/08:00am 23.8 27.3 21.9 89 1.3 E 6 6 3 3 1015.1 1015.1 0.2
28/07:30am 22.4 25.7 21.4 94 0.7 E 6 7 3 4 1015.0 1015.0 0.2
28/07:00am 21.4 24.3 20.7 96 0.5 E 6 7 3 4 1014.6 1014.6 0.2
28/06:30am 20.7 23.0 19.5 93 0.8 E 6 7 3 4 1014.4 1014.4 0.2
28/06:00am 20.9 23.2 19.9 94 0.6 ESE 7 9 4 5 1014.2 1014.2 0.2
28/05:30am 20.5 23.1 20.0 97 0.3 E 6 7 3 4 1014.0 1014.0 0.2
28/05:00am 20.1 22.8 19.4 96 0.4 E 4 6 2 3 1013.6 1013.6 0.2
28/04:30am 20.2 23.4 19.7 97 0.3 SE 2 6 1 3 1013.4 1013.4 0.2
28/04:00am 20.2 23.3 19.4 95 0.5 SE 2 2 1 1 1013.5 1013.5 0.2
28/03:30am 20.6 23.9 19.9 96 0.4 ESE 2 4 1 2 1013.5 1013.5 0.2
28/03:00am 20.6 23.8 19.8 95 0.5 SE 2 6 1 3 1013.6 1013.6 0.2
28/02:30am 21.2 24.8 20.5 96 0.5 SSE 2 4 1 2 1013.9 1013.9 0.2
28/02:00am 21.3 25.1 20.1 93 0.8 CALM 0 2 0 1 1014.3 1014.3 0.2
28/01:30am 22.0 25.0 20.1 89 1.2 S 4 7 2 4 1014.6 1014.6 0.2
28/01:00am 22.0 25.4 21.7 98 0.2 SSE 6 9 3 5 1014.7 1014.7 0.2
28/12:30am 20.6 24.4 20.1 97 0.3 CALM 0 0 0 0 1014.7 1014.7 0.2
28/12:00am 20.4 23.9 19.6 95 0.5 CALM 0 0 0 0 1014.7 1014.7 0.2
 
Date/Time
CST
Temp
°C
App
Temp
°C
Dew
Point
°C
Rel
Hum
%
Delta-T
°C
Wind Press
QNH
hPa
Press
MSL
hPa
Rain since
9am
mm
Dir  Spd
km/h
Gust
km/h
Spd
kts
Gust
kts
27/11:30pm 20.2 23.4 18.9 92 0.8 CALM 0 0 0 0 1014.8 1014.8 0.2
27/11:00pm 20.5 23.6 19.5 94 0.6 ENE 2 2 1 1 1014.6 1014.6 0.2
27/10:30pm 20.8 23.6 19.6 93 0.8 ENE 4 4 2 2 1014.5 1014.5 0.2
27/10:00pm 20.9 24.0 19.6 92 0.8 ENE 2 2 1 1 1014.1 1014.1 0.2
27/09:30pm 21.3 24.5 19.8 91 1.0 NNE 2 6 1 3 1014.0 1014.0 0.2
27/09:00pm 21.5 24.5 20.0 91 1.0 NNE 4 6 2 3 1013.9 1013.9 0.2
27/08:30pm 21.9 25.6 20.0 89 1.2 CALM 0 0 0 0 1013.4 1013.4 0.2
27/08:00pm 22.7 26.3 19.7 83 1.9 CALM 0 2 0 1 1012.9 1012.9 0.2
27/07:30pm 23.6 26.1 19.1 76 2.9 N 4 6 2 3 1012.5 1012.5 0.2
27/07:00pm 25.2 28.1 19.1 69 3.9 N 2 4 1 2 1012.2 1012.2 0.2
27/06:30pm 26.5 28.7 19.6 66 4.5 N 7 11 4 6 1011.7 1011.7 0.2
27/06:00pm 27.6 29.1 18.9 59 5.6 N 9 19 5 10 1011.6 1011.6 0.2
27/05:30pm 28.5 30.1 19.2 57 6.0 N 9 17 5 9 1011.4 1011.4 0.2
27/05:00pm 28.9 30.2 19.2 55 6.3 N 11 19 6 10 1011.3 1011.3 0.2
27/04:30pm 29.3 29.6 18.7 52 6.8 N 15 24 8 13 1011.2 1011.2 0.2
27/04:00pm 29.4 28.5 16.9 47 7.8 N 17 26 9 14 1011.4 1011.4 0.2
27/03:30pm 29.9 30.1 17.7 48 7.8 NNE 13 24 7 13 1011.5 1011.5 0.2
27/03:00pm 30.0 29.8 17.5 47 7.9 N 15 30 8 16 1011.8 1011.8 0.2
27/02:30pm 30.0 29.5 17.8 48 7.8 N 17 30 9 16 1012.1 1012.1 0.2
27/02:00pm 30.4 29.6 17.1 44 8.4 N 17 28 9 15 1012.5 1012.5 0.2
27/01:30pm - - - - - ENE 13 22 7 12 1013.2 1013.2 0.2
27/01:00pm - - - - - E 15 26 8 14 1013.7 1013.7 0.2
27/12:30pm - - - - - E 13 22 7 12 1014.1 1014.1 0.2
27/12:00pm - - - - - ENE 15 20 8 11 1014.6 1014.6 0.2
27/11:30am - - - - - E 17 28 9 15 1015.1 1015.1 0.2
27/11:00am - - - - - E 15 26 8 14 1015.4 1015.4 0.2
27/10:30am - - - - - E 17 24 9 13 1015.7 1015.7 0.2
27/10:00am - - - - - ENE 17 26 9 14 1015.8 1015.8 0.2
27/09:30am - - - - - E 15 26 8 14 1015.7 1015.7 0.0
27/09:00am - - - - - ENE 19 30 10 16 1015.4 1015.4 11.0
27/08:30am - - - - - ENE 15 28 8 15 1015.3 1015.3 11.0
27/08:00am - - - - - ENE 11 20 6 11 1015.0 1015.0 11.0
27/07:30am - - - - - ENE 11 17 6 9 1014.9 1014.9 11.0
27/07:00am - - - - - ENE 11 20 6 11 1014.6 1014.6 11.0
27/06:30am - - - - - ENE 9 13 5 7 1014.3 1014.3 11.0
27/06:00am - - - - - ENE 6 7 3 4 1013.8 1013.8 11.0
27/05:30am - - - - - ENE 6 11 3 6 1013.6 1013.6 11.0
27/05:00am - - - - - ENE 4 9 2 5 1013.4 1013.4 11.0
27/04:30am - - - - - NE 13 22 7 12 1013.5 1013.5 11.0
27/04:00am - - - - - ESE 4 9 2 5 1013.5 1013.5 0.0
27/03:30am - - - - - CALM 0 0 0 0 1013.4 1013.4 0.0
27/03:00am - - - - - ESE 4 6 2 3 1013.3 1013.3 0.0
27/02:30am - - - - - SSE 6 9 3 5 1013.1 1013.1 0.0
27/02:00am - - - - - SSE 4 6 2 3 1013.6 1013.6 0.0
27/01:30am - - - - - S 4 6 2 3 1013.8 1013.8 0.0
27/01:00am - - - - - E 4 6 2 3 1013.8 1013.8 0.0
27/12:30am - - - - - ESE 4 6 2 3 1013.9 1013.9 0.0
27/12:00am - - - - - ESE 4 7 2 4 1013.9 1013.9 0.0

Latest Capital City Observations: Canberra | Sydney | Melbourne | Brisbane | Adelaide | Perth | Hobart | Darwin

Other Formats:

Comma delimited format used in spreadsheet applications
http://www.bom.gov.au/fwo/IDD60901/IDD60901.94116.axf

JavaScript Object Notation format (JSON) in row-major order
http://www.bom.gov.au/fwo/IDD60901/IDD60901.94116.json